Time;durP1;ratioP1;P1;durP2;ratioP2;P2;SDS_P1;SDS_P2;PMS_P1;PMS_P2;Temp;Humidity;BMP_temperature;BMP_pressure;BME280_temperature;BME280_humidity;BME280_pressure;Samples;Min_cycle;Max_cycle;Signal;HPM_P1;HPM_P2
2024/02/20 00:02:18;;;;;;;;;;;;;;;;;;5014846;28;19921;-66
2024/02/20 00:04:44;;;;;;;;;;;;;;;;;;5012790;28;20405;-66
2024/02/20 00:07:10;;;;;;;;;;;;;;;;;;5008048;28;19921;-65
2024/02/20 00:09:36;;;;;;;;;;;;;;;;;;5011593;28;20072;-65
2024/02/20 00:12:01;;;;;;;;;;;;;;;;;;5009206;28;19983;-65
2024/02/20 00:14:27;;;;;;;;;;;;;;;;;;5015790;28;20367;-65
2024/02/20 00:16:53;;;;;;;;;;;;;;;;;;5008585;28;20040;-66
2024/02/20 00:19:20;;;;;;;;;;;;;;;;;;5024007;28;19983;-67
2024/02/20 00:21:46;;;;;;;;;;;;;;;;;;4997741;28;19995;-67
2024/02/20 00:24:12;;;;;;;;;;;;;;;;;;5010573;28;20344;-66
2024/02/20 00:26:38;;;;;;;;;;;;;;;;;;5011109;28;20432;-66
2024/02/20 00:29:04;;;;;;;;;;;;;;;;;;5023376;28;19971;-66
2024/02/20 00:31:32;;;;;;;;;;;;;;;;;;5024581;28;19967;-66
2024/02/20 00:33:58;;;;;;;;;;;;;;;;;;5005596;28;19929;-67
2024/02/20 00:36:24;;;;;;;;;;;;;;;;;;5025504;28;19921;-67
2024/02/20 00:38:50;;;;;;;;;;;;;;;;;;5034136;28;19932;-67
2024/02/20 00:41:16;;;;;;;;;;;;;;;;;;5020662;28;19976;-65
2024/02/20 00:43:42;;;;;;;;;;;;;;;;;;4996995;28;20358;-65
2024/02/20 00:46:08;;;;;;;;;;;;;;;;;;5022500;28;19928;-66
2024/02/20 00:48:34;;;;;;;;;;;;;;;;;;5018851;28;19925;-66
2024/02/20 00:50:59;;;;;;;;;;;;;;;;;;4985312;28;20011;-65
2024/02/20 00:53:25;;;;;;;;;;;;;;;;;;5027178;28;20525;-65
2024/02/20 00:55:51;;;;;;;;;;;;;;;;;;5012780;28;19929;-66
2024/02/20 00:58:18;;;;;;;;;;;;;;;;;;5007383;28;20397;-65
2024/02/20 01:00:44;;;;;;;;;;;;;;;;;;5020009;28;19921;-65
2024/02/20 01:03:10;;;;;;;;;;;;;;;;;;5027011;28;20357;-65
2024/02/20 01:05:36;;;;;;;;;;;;;;;;;;5017714;28;19936;-65
2024/02/20 01:08:01;;;;;;;;;;;;;;;;;;5019274;28;19921;-65
2024/02/20 01:10:27;;;;;;;;;;;;;;;;;;5014565;28;19936;-65
2024/02/20 01:12:54;;;;;;;;;;;;;;;;;;5020508;28;19936;-65
2024/02/20 01:15:20;;;;;;;;;;;;;;;;;;5028326;28;20022;-65
2024/02/20 01:17:46;;;;;;;;;;;;;;;;;;5022679;28;19988;-66
2024/02/20 01:20:12;;;;;;;;;;;;;;;;;;5026216;28;19922;-67
2024/02/20 01:22:39;;;;;;;;;;;;;;;;;;5023427;28;19925;-67
2024/02/20 01:25:05;;;;;;;;;;;;;;;;;;5033105;28;19921;-67
2024/02/20 01:27:31;;;;;;;;;;;;;;;;;;5027388;28;19931;-66
2024/02/20 01:29:58;;;;;;;;;;;;;;;;;;5031991;28;19964;-67
2024/02/20 01:32:24;;;;;;;;;;;;;;;;;;5023790;28;19929;-66
2024/02/20 01:34:50;;;;;;;;;;;;;;;;;;5033981;28;20369;-66
2024/02/20 01:37:16;;;;;;;;;;;;;;;;;;5033070;28;19925;-66
2024/02/20 01:39:42;;;;;;;;;;;;;;;;;;5031274;28;19988;-66
2024/02/20 01:42:08;;;;;;;;;;;;;;;;;;5026098;28;19929;-66
2024/02/20 01:44:34;;;;;;;;;;;;;;;;;;5020399;28;20007;-66
2024/02/20 01:47:00;;;;;;;;;;;;;;;;;;5018391;28;20000;-66
2024/02/20 01:49:26;;;;;;;;;;;;;;;;;;4994029;28;19983;-67
2024/02/20 01:51:52;;;;;;;;;;;;;;;;;;5024950;28;19921;-66
2024/02/20 01:54:18;;;;;;;;;;;;;;;;;;5013894;28;20004;-66
2024/02/20 01:56:44;;;;;;;;;;;;;;;;;;5025428;28;20019;-66
2024/02/20 01:59:10;;;;;;;;;;;;;;;;;;5033556;28;20003;-66
2024/02/20 02:01:35;;;;;;;;;;;;;;;;;;5028058;28;20343;-67
2024/02/20 02:04:01;;;;;;;;;;;;;;;;;;5029870;28;19960;-67
2024/02/20 02:06:28;;;;;;;;;;;;;;;;;;5033401;28;19925;-66
2024/02/20 02:08:53;;;;;;;;;;;;;;;;;;5018377;28;20381;-67
2024/02/20 02:11:19;;;;;;;;;;;;;;;;;;5013491;28;20008;-65
2024/02/20 02:13:45;;;;;;;;;;;;;;;;;;5007223;28;19933;-65
2024/02/20 02:16:11;;;;;;;;;;;;;;;;;;5025577;28;19922;-66
2024/02/20 02:18:38;;;;;;;;;;;;;;;;;;5026590;28;20422;-66
2024/02/20 02:21:04;;;;;;;;;;;;;;;;;;4982358;28;19921;-66
2024/02/20 02:23:30;;;;;;;;;;;;;;;;;;5030060;28;19932;-66
2024/02/20 02:25:56;;;;;;;;;;;;;;;;;;5033172;28;19925;-65
2024/02/20 02:28:22;;;;;;;;;;;;;;;;;;5018011;28;20346;-65
2024/02/20 02:30:48;;;;;;;;;;;;;;;;;;5023504;28;19928;-65
2024/02/20 02:33:14;;;;;;;;;;;;;;;;;;5005326;28;19933;-66
2024/02/20 02:35:40;;;;;;;;;;;;;;;;;;5026729;28;19921;-66
2024/02/20 02:38:06;;;;;;;;;;;;;;;;;;5015473;28;20571;-66
2024/02/20 02:40:32;;;;;;;;;;;;;;;;;;4994435;28;20016;-66
2024/02/20 02:42:58;;;;;;;;;;;;;;;;;;5018436;28;20061;-67
2024/02/20 02:45:24;;;;;;;;;;;;;;;;;;5013509;28;19928;-67
2024/02/20 02:47:50;;;;;;;;;;;;;;;;;;5022441;28;19927;-66
2024/02/20 02:50:16;;;;;;;;;;;;;;;;;;5032938;28;19936;-66
2024/02/20 02:52:43;;;;;;;;;;;;;;;;;;5024848;28;20290;-66
2024/02/20 02:55:08;;;;;;;;;;;;;;;;;;5019882;28;19948;-67
2024/02/20 02:57:34;;;;;;;;;;;;;;;;;;5012696;28;20366;-67
2024/02/20 03:00:00;;;;;;;;;;;;;;;;;;5029720;28;19936;-67
2024/02/20 03:02:26;;;;;;;;;;;;;;;;;;5018095;28;19925;-67
2024/02/20 03:04:53;;;;;;;;;;;;;;;;;;5013266;28;19968;-67
2024/02/20 03:07:19;;;;;;;;;;;;;;;;;;5021669;28;19959;-67
2024/02/20 03:09:45;;;;;;;;;;;;;;;;;;5012164;28;19921;-66
2024/02/20 03:12:11;;;;;;;;;;;;;;;;;;5027269;28;19928;-66
2024/02/20 03:14:37;;;;;;;;;;;;;;;;;;5026837;28;20472;-65
2024/02/20 03:17:03;;;;;;;;;;;;;;;;;;5025257;28;19967;-66
2024/02/20 03:19:29;;;;;;;;;;;;;;;;;;5008209;28;19929;-65
2024/02/20 03:21:55;;;;;;;;;;;;;;;;;;5031067;28;19925;-66
2024/02/20 03:24:21;;;;;;;;;;;;;;;;;;5031002;28;19928;-66
2024/02/20 03:26:47;;;;;;;;;;;;;;;;;;5012319;28;19957;-65
2024/02/20 03:29:13;;;;;;;;;;;;;;;;;;5027552;28;20020;-66
2024/02/20 03:31:39;;;;;;;;;;;;;;;;;;4992044;28;20357;-65
2024/02/20 03:34:06;;;;;;;;;;;;;;;;;;5031433;28;19925;-65
2024/02/20 03:36:32;;;;;;;;;;;;;;;;;;5012208;28;19925;-66
2024/02/20 03:38:58;;;;;;;;;;;;;;;;;;4995187;28;19926;-66
2024/02/20 03:41:24;;;;;;;;;;;;;;;;;;5007145;28;19927;-64
2024/02/20 03:43:50;;;;;;;;;;;;;;;;;;5000824;28;19929;-65
2024/02/20 03:46:16;;;;;;;;;;;;;;;;;;5021356;28;20379;-65
2024/02/20 03:48:42;;;;;;;;;;;;;;;;;;5004655;28;19925;-66
2024/02/20 03:51:11;;;;;;;;;;;;;;;;;;5024545;28;19925;-66
2024/02/20 03:53:37;;;;;;;;;;;;;;;;;;5003763;28;19935;-66
2024/02/20 03:56:03;;;;;;;;;;;;;;;;;;5018472;28;20011;-66
2024/02/20 03:58:29;;;;;;;;;;;;;;;;;;5032226;28;19922;-66
2024/02/20 04:00:55;;;;;;;;;;;;;;;;;;5015040;28;19928;-65
2024/02/20 04:03:21;;;;;;;;;;;;;;;;;;5036904;28;19925;-65
2024/02/20 04:05:47;;;;;;;;;;;;;;;;;;5040789;28;19935;-65
2024/02/20 04:08:15;;;;;;;;;;;;;;;;;;5046863;28;19939;-65
2024/02/20 04:10:41;;;;;;;;;;;;;;;;;;5035626;28;19952;-65
2024/02/20 04:13:07;;;;;;;;;;;;;;;;;;5044952;28;20703;-66
2024/02/20 04:15:33;;;;;;;;;;;;;;;;;;5039754;28;19920;-66
2024/02/20 04:17:59;;;;;;;;;;;;;;;;;;5038780;28;20370;-66
2024/02/20 04:20:25;;;;;;;;;;;;;;;;;;5046292;28;19928;-64
2024/02/20 04:22:51;;;;;;;;;;;;;;;;;;5036807;28;19929;-65
2024/02/20 04:25:17;;;;;;;;;;;;;;;;;;5041198;28;19928;-66
2024/02/20 04:27:44;;;;;;;;;;;;;;;;;;5034684;28;19921;-65
2024/02/20 04:30:11;;;;;;;;;;;;;;;;;;5041812;28;19921;-65
2024/02/20 04:32:37;;;;;;;;;;;;;;;;;;5051173;28;20509;-66
2024/02/20 04:35:03;;;;;;;;;;;;;;;;;;5038828;28;20224;-66
2024/02/20 04:37:28;;;;;;;;;;;;;;;;;;5037099;28;19925;-66
2024/02/20 04:39:55;;;;;;;;;;;;;;;;;;5048803;28;19928;-66
2024/02/20 04:42:21;;;;;;;;;;;;;;;;;;5049885;28;19920;-66
2024/02/20 04:44:47;;;;;;;;;;;;;;;;;;5047497;28;20118;-66
2024/02/20 04:47:13;;;;;;;;;;;;;;;;;;5044984;28;20022;-65
2024/02/20 04:49:39;;;;;;;;;;;;;;;;;;5032535;28;20290;-65
2024/02/20 04:52:05;;;;;;;;;;;;;;;;;;5040038;28;19925;-67
2024/02/20 04:54:31;;;;;;;;;;;;;;;;;;5048755;28;20266;-67
2024/02/20 04:56:56;;;;;;;;;;;;;;;;;;5022006;28;19932;-67
2024/02/20 04:59:23;;;;;;;;;;;;;;;;;;5013919;28;20455;-67
2024/02/20 05:01:49;;;;;;;;;;;;;;;;;;5021610;28;19947;-67
2024/02/20 05:04:14;;;;;;;;;;;;;;;;;;5021802;28;20375;-67
2024/02/20 05:06:40;;;;;;;;;;;;;;;;;;5023247;28;20004;-67
2024/02/20 05:09:06;;;;;;;;;;;;;;;;;;5033706;28;19925;-67
2024/02/20 05:11:32;;;;;;;;;;;;;;;;;;5012934;28;20401;-67
2024/02/20 05:13:58;;;;;;;;;;;;;;;;;;5032005;28;19929;-66
2024/02/20 05:16:24;;;;;;;;;;;;;;;;;;5032375;28;19921;-66
2024/02/20 05:18:50;;;;;;;;;;;;;;;;;;5007321;28;19921;-66
2024/02/20 05:21:16;;;;;;;;;;;;;;;;;;5017419;28;20041;-66
2024/02/20 05:23:42;;;;;;;;;;;;;;;;;;5025206;28;19973;-66
2024/02/20 05:26:08;;;;;;;;;;;;;;;;;;5026738;28;19960;-65
2024/02/20 05:28:34;;;;;;;;;;;;;;;;;;5029610;28;20390;-66
2024/02/20 05:31:00;;;;;;;;;;;;;;;;;;5016110;28;20007;-65
2024/02/20 05:33:26;;;;;;;;;;;;;;;;;;5000403;28;19968;-66
2024/02/20 05:35:52;;;;;;;;;;;;;;;;;;5031600;28;19921;-65
2024/02/20 05:38:18;;;;;;;;;;;;;;;;;;5033885;28;19928;-67
2024/02/20 05:40:44;;;;;;;;;;;;;;;;;;5034143;28;19932;-67
2024/02/20 05:43:10;;;;;;;;;;;;;;;;;;5015234;28;20298;-66
2024/02/20 05:45:36;;;;;;;;;;;;;;;;;;5009345;28;20120;-65
2024/02/20 05:48:02;;;;;;;;;;;;;;;;;;5013966;28;20295;-66
2024/02/20 05:50:28;;;;;;;;;;;;;;;;;;5013693;28;19928;-67
2024/02/20 05:52:55;;;;;;;;;;;;;;;;;;5013759;28;20270;-66
2024/02/20 05:55:21;;;;;;;;;;;;;;;;;;5013488;28;20012;-66
2024/02/20 05:57:47;;;;;;;;;;;;;;;;;;5014115;28;20005;-66
2024/02/20 06:00:13;;;;;;;;;;;;;;;;;;5026737;28;19928;-66
2024/02/20 06:02:39;;;;;;;;;;;;;;;;;;5033701;28;20015;-66
2024/02/20 06:05:07;;;;;;;;;;;;;;;;;;5029533;28;19921;-66
2024/02/20 06:07:32;;;;;;;;;;;;;;;;;;5019330;28;20338;-66
2024/02/20 06:09:58;;;;;;;;;;;;;;;;;;5033359;28;20004;-65
2024/02/20 06:12:24;;;;;;;;;;;;;;;;;;5023542;28;19925;-65
2024/02/20 06:14:50;;;;;;;;;;;;;;;;;;5011124;28;19936;-65
2024/02/20 06:17:16;;;;;;;;;;;;;;;;;;5023958;28;19929;-65
2024/02/20 06:19:42;;;;;;;;;;;;;;;;;;5013253;28;19944;-65
2024/02/20 06:22:08;;;;;;;;;;;;;;;;;;5013284;28;19922;-66
2024/02/20 06:24:34;;;;;;;;;;;;;;;;;;5012861;28;19932;-65
2024/02/20 06:27:02;;;;;;;;;;;;;;;;;;5011955;28;19926;-65
2024/02/20 06:29:28;;;;;;;;;;;;;;;;;;5013009;28;19933;-65
2024/02/20 06:31:54;;;;;;;;;;;;;;;;;;5000893;28;19921;-66
2024/02/20 06:34:20;;;;;;;;;;;;;;;;;;5032056;28;19925;-65
2024/02/20 06:36:46;;;;;;;;;;;;;;;;;;5032758;28;19936;-65
2024/02/20 06:39:12;;;;;;;;;;;;;;;;;;5032899;28;19948;-65
2024/02/20 06:41:37;;;;;;;;;;;;;;;;;;5032682;28;19990;-66
2024/02/20 06:44:03;;;;;;;;;;;;;;;;;;5014886;28;20367;-66
2024/02/20 06:46:29;;;;;;;;;;;;;;;;;;5023164;28;19932;-66
2024/02/20 06:49:03;;;;;;;;;;;;;;;;;;5086819;27;20362;-66
2024/02/20 06:51:29;;;;;;;;;;;;;;;;;;5070924;28;19925;-66
2024/02/20 06:53:55;;;;;;;;;;;;;;;;;;5068956;28;19967;-66
2024/02/20 06:56:21;;;;;;;;;;;;;;;;;;5083933;28;19959;-67
2024/02/20 06:58:47;;;;;;;;;;;;;;;;;;5068814;28;19956;-67
2024/02/20 07:01:12;;;;;;;;;;;;;;;;;;5073353;28;19924;-67
2024/02/20 07:03:38;;;;;;;;;;;;;;;;;;5077367;28;19925;-66
2024/02/20 07:06:04;;;;;;;;;;;;;;;;;;5067719;28;19966;-66
2024/02/20 07:08:30;;;;;;;;;;;;;;;;;;5067412;28;19925;-66
2024/02/20 07:10:58;;;;;;;;;;;;;;;;;;5068563;28;20019;-66
2024/02/20 07:13:24;;;;;;;;;;;;;;;;;;5082674;28;20418;-66
2024/02/20 07:15:49;;;;;;;;;;;;;;;;;;5061870;28;19925;-66
2024/02/20 07:18:15;;;;;;;;;;;;;;;;;;5063378;28;19947;-66
2024/02/20 07:20:41;;;;;;;;;;;;;;;;;;5077692;28;20302;-66
2024/02/20 07:23:07;;;;;;;;;;;;;;;;;;5061065;28;19925;-66
2024/02/20 07:25:33;;;;;;;;;;;;;;;;;;5065047;28;19931;-66
2024/02/20 07:28:00;;;;;;;;;;;;;;;;;;5075226;28;19935;-66
2024/02/20 07:30:30;;;;;;;;;;;;;;;;;;5063806;28;19927;-66
2024/02/20 07:32:56;;;;;;;;;;;;;;;;;;5060075;28;19921;-66
2024/02/20 07:35:22;;;;;;;;;;;;;;;;;;5059540;28;19927;-65
2024/02/20 07:37:48;;;;;;;;;;;;;;;;;;5073438;28;19942;-65
2024/02/20 07:40:14;;;;;;;;;;;;;;;;;;5062134;28;20392;-65
2024/02/20 07:42:40;;;;;;;;;;;;;;;;;;5037861;28;19952;-65
2024/02/20 07:45:06;;;;;;;;;;;;;;;;;;5063038;28;19974;-65
2024/02/20 07:47:32;;;;;;;;;;;;;;;;;;5057347;28;19929;-65
2024/02/20 07:49:58;;;;;;;;;;;;;;;;;;5054001;28;19928;-65
2024/02/20 07:52:24;;;;;;;;;;;;;;;;;;5087400;28;20333;-65
2024/02/20 07:54:50;;;;;;;;;;;;;;;;;;5065604;28;20306;-65
2024/02/20 07:57:16;;;;;;;;;;;;;;;;;;5061315;28;19931;-65
2024/02/20 07:59:42;;;;;;;;;;;;;;;;;;5049312;28;19921;-65
2024/02/20 08:02:09;;;;;;;;;;;;;;;;;;5049239;28;19924;-65
2024/02/20 08:04:35;;;;;;;;;;;;;;;;;;5054603;28;19924;-65
2024/02/20 08:07:01;;;;;;;;;;;;;;;;;;5053621;28;19931;-65
2024/02/20 08:09:27;;;;;;;;;;;;;;;;;;5052439;28;19921;-65
2024/02/20 08:11:53;;;;;;;;;;;;;;;;;;5053023;28;19925;-66
2024/02/20 08:14:19;;;;;;;;;;;;;;;;;;5037107;28;19924;-65
2024/02/20 08:16:45;;;;;;;;;;;;;;;;;;5044095;28;19932;-65
2024/02/20 08:19:11;;;;;;;;;;;;;;;;;;5040320;28;20015;-66
2024/02/20 08:21:37;;;;;;;;;;;;;;;;;;5039058;28;20356;-66
2024/02/20 08:24:03;;;;;;;;;;;;;;;;;;5050118;28;20047;-66
2024/02/20 08:26:29;;;;;;;;;;;;;;;;;;5054451;28;20023;-66
2024/02/20 08:28:55;;;;;;;;;;;;;;;;;;5045545;28;20011;-66
2024/02/20 08:31:21;;;;;;;;;;;;;;;;;;5044109;28;20376;-66
2024/02/20 08:33:47;;;;;;;;;;;;;;;;;;5050312;28;19928;-66
2024/02/20 08:36:13;;;;;;;;;;;;;;;;;;5053060;28;20020;-66
2024/02/20 08:38:39;;;;;;;;;;;;;;;;;;5049396;28;19921;-66
2024/02/20 08:41:05;;;;;;;;;;;;;;;;;;5049792;28;19925;-66
2024/02/20 08:43:31;;;;;;;;;;;;;;;;;;5042549;28;19943;-66
2024/02/20 08:45:56;;;;;;;;;;;;;;;;;;5049377;28;19928;-66
2024/02/20 08:48:22;;;;;;;;;;;;;;;;;;5058352;28;19924;-66
2024/02/20 08:50:48;;;;;;;;;;;;;;;;;;5044917;28;19936;-65
2024/02/20 08:53:14;;;;;;;;;;;;;;;;;;5048601;28;19978;-66
2024/02/20 08:55:40;;;;;;;;;;;;;;;;;;5048828;28;20375;-65
2024/02/20 08:58:06;;;;;;;;;;;;;;;;;;5033136;28;19928;-65
2024/02/20 09:00:33;;;;;;;;;;;;;;;;;;5048744;28;20010;-65
2024/02/20 09:02:59;;;;;;;;;;;;;;;;;;5043487;28;20326;-66
2024/02/20 09:05:25;;;;;;;;;;;;;;;;;;5037341;28;19932;-66
2024/02/20 09:07:51;;;;;;;;;;;;;;;;;;5048464;28;20019;-66
2024/02/20 09:10:17;;;;;;;;;;;;;;;;;;5058170;22;20377;-67
2024/02/20 09:12:43;;;;;;;;;;;;;;;;;;5042443;28;19929;-66
2024/02/20 09:15:08;;;;;;;;;;;;;;;;;;5053998;28;19921;-67
2024/02/20 09:17:34;;;;;;;;;;;;;;;;;;5048759;28;20031;-67
2024/02/20 09:20:00;;;;;;;;;;;;;;;;;;5051416;28;19952;-68
2024/02/20 09:22:26;;;;;;;;;;;;;;;;;;5050779;28;20006;-67
2024/02/20 09:24:52;;;;;;;;;;;;;;;;;;5048517;28;19971;-67
2024/02/20 09:27:18;;;;;;;;;;;;;;;;;;5052934;28;20381;-68
2024/02/20 09:29:44;;;;;;;;;;;;;;;;;;5051703;28;19963;-67
2024/02/20 09:32:10;;;;;;;;;;;;;;;;;;5049824;28;20112;-67
2024/02/20 09:34:36;;;;;;;;;;;;;;;;;;5051853;28;19943;-66
2024/02/20 09:37:02;;;;;;;;;;;;;;;;;;5051200;28;20370;-66
2024/02/20 09:39:28;;;;;;;;;;;;;;;;;;5058948;28;19925;-67
2024/02/20 09:41:54;;;;;;;;;;;;;;;;;;5050674;28;19974;-66
2024/02/20 09:44:20;;;;;;;;;;;;;;;;;;5061053;28;19921;-67
2024/02/20 09:46:46;;;;;;;;;;;;;;;;;;5042111;28;20665;-67
2024/02/20 09:49:13;;;;;;;;;;;;;;;;;;5039744;28;19932;-66
2024/02/20 09:51:39;;;;;;;;;;;;;;;;;;5031033;28;19921;-66
2024/02/20 09:54:05;;;;;;;;;;;;;;;;;;5030745;28;19929;-67
2024/02/20 09:56:33;;;;;;;;;;;;;;;;;;5033862;28;20383;-67
2024/02/20 09:58:59;;;;;;;;;;;;;;;;;;5047410;28;19975;-67
2024/02/20 10:01:25;;;;;;;;;;;;;;;;;;5045289;28;19921;-67
2024/02/20 10:03:51;;;;;;;;;;;;;;;;;;5032313;28;19921;-67
2024/02/20 10:06:16;;;;;;;;;;;;;;;;;;5032172;28;19925;-67
2024/02/20 10:08:42;;;;;;;;;;;;;;;;;;5041195;28;20015;-67
2024/02/20 10:11:08;;;;;;;;;;;;;;;;;;5029332;28;19925;-67
2024/02/20 10:13:34;;;;;;;;;;;;;;;;;;5044983;28;20329;-67
2024/02/20 10:16:00;;;;;;;;;;;;;;;;;;5046705;28;19928;-67
2024/02/20 10:18:26;;;;;;;;;;;;;;;;;;5037460;28;19925;-66
2024/02/20 10:20:52;;;;;;;;;;;;;;;;;;5049565;28;20378;-67
2024/02/20 10:23:18;;;;;;;;;;;;;;;;;;5050142;28;19920;-67
2024/02/20 10:25:44;;;;;;;;;;;;;;;;;;5038636;28;19932;-67
2024/02/20 10:28:10;;;;;;;;;;;;;;;;;;5046750;28;20014;-67
2024/02/20 10:30:36;;;;;;;;;;;;;;;;;;5050768;28;20021;-67
2024/02/20 10:33:02;;;;;;;;;;;;;;;;;;5050952;28;19932;-69
2024/02/20 10:35:28;;;;;;;;;;;;;;;;;;5050767;28;19931;-67
2024/02/20 10:37:54;;;;;;;;;;;;;;;;;;5046563;28;19921;-67
2024/02/20 10:40:20;;;;;;;;;;;;;;;;;;5033581;28;20386;-67
2024/02/20 10:42:45;;;;;;;;;;;;;;;;;;5066973;28;20393;-67
2024/02/20 10:45:11;;;;;;;;;;;;;;;;;;5050135;28;19928;-67
2024/02/20 10:47:37;;;;;;;;;;;;;;;;;;5031714;28;19964;-68
2024/02/20 10:50:05;;;;;;;;;;;;;;;;;;5031627;28;19957;-67
2024/02/20 10:52:31;;;;;;;;;;;;;;;;;;5047043;28;19925;-66
2024/02/20 10:54:57;;;;;;;;;;;;;;;;;;5050748;28;20317;-65
2024/02/20 10:57:22;;;;;;;;;;;;;;;;;;5034470;28;20282;-67
2024/02/20 10:59:48;;;;;;;;;;;;;;;;;;5042390;28;19925;-67
2024/02/20 11:02:14;;;;;;;;;;;;;;;;;;5051353;28;19921;-67
2024/02/20 11:04:40;;;;;;;;;;;;;;;;;;5051362;28;19921;-66
2024/02/20 11:07:06;;;;;;;;;;;;;;;;;;5051576;28;19925;-67
2024/02/20 11:09:32;;;;;;;;;;;;;;;;;;5050938;28;19970;-68
2024/02/20 11:11:58;;;;;;;;;;;;;;;;;;5045404;28;19974;-68
2024/02/20 11:14:24;;;;;;;;;;;;;;;;;;5051239;28;20455;-67
2024/02/20 11:16:50;;;;;;;;;;;;;;;;;;5048950;28;19924;-67
2024/02/20 11:19:16;;;;;;;;;;;;;;;;;;5050417;28;19921;-67
2024/02/20 11:21:42;;;;;;;;;;;;;;;;;;5050273;28;19970;-68
2024/02/20 11:24:08;;;;;;;;;;;;;;;;;;5050657;28;20004;-67
2024/02/20 11:26:34;;;;;;;;;;;;;;;;;;5046967;28;19928;-66
2024/02/20 11:29:00;;;;;;;;;;;;;;;;;;5034861;28;20433;-68
2024/02/20 11:31:26;;;;;;;;;;;;;;;;;;5049914;28;20388;-67
2024/02/20 11:33:52;;;;;;;;;;;;;;;;;;5050654;28;19921;-67
2024/02/20 11:36:18;;;;;;;;;;;;;;;;;;5053868;28;19932;-67
2024/02/20 11:38:44;;;;;;;;;;;;;;;;;;5055052;28;20330;-67
2024/02/20 11:41:10;;;;;;;;;;;;;;;;;;5055064;28;19920;-67
2024/02/20 11:43:36;;;;;;;;;;;;;;;;;;5053327;28;19920;-67
2024/02/20 11:46:02;;;;;;;;;;;;;;;;;;5045695;28;19924;-68
2024/02/20 11:48:28;;;;;;;;;;;;;;;;;;5039751;28;19933;-67
2024/02/20 11:50:55;;;;;;;;;;;;;;;;;;5043689;28;19921;-66
2024/02/20 11:53:21;;;;;;;;;;;;;;;;;;5053441;28;19920;-66
2024/02/20 11:55:49;;;;;;;;;;;;;;;;;;5045195;28;19931;-67
2024/02/20 11:58:15;;;;;;;;;;;;;;;;;;5052939;28;20016;-67
2024/02/20 12:00:40;;;;;;;;;;;;;;;;;;5053048;28;20004;-67
2024/02/20 12:03:09;;;;;;;;;;;;;;;;;;5053461;28;19925;-67
2024/02/20 12:05:41;;;;;;;;;;;;;;;;;;5054494;28;19931;-67
2024/02/20 12:08:07;;;;;;;;;;;;;;;;;;5053280;28;19925;-67
2024/02/20 12:10:35;;;;;;;;;;;;;;;;;;5052348;28;19924;-67
2024/02/20 12:13:01;;;;;;;;;;;;;;;;;;5048268;28;20089;-67
2024/02/20 12:15:27;;;;;;;;;;;;;;;;;;5054555;28;19921;-67
2024/02/20 12:17:52;;;;;;;;;;;;;;;;;;5054089;28;19932;-67
2024/02/20 12:20:18;;;;;;;;;;;;;;;;;;5054341;28;19931;-67
2024/02/20 12:22:44;;;;;;;;;;;;;;;;;;5054208;28;20073;-67
2024/02/20 12:25:10;;;;;;;;;;;;;;;;;;5054004;28;19921;-67
2024/02/20 12:27:36;;;;;;;;;;;;;;;;;;5048848;28;19929;-67
2024/02/20 12:30:02;;;;;;;;;;;;;;;;;;5046443;28;19947;-67
2024/02/20 12:32:28;;;;;;;;;;;;;;;;;;5045073;28;20386;-67
2024/02/20 12:34:54;;;;;;;;;;;;;;;;;;5041252;28;19928;-67
2024/02/20 12:37:20;;;;;;;;;;;;;;;;;;5052536;28;20303;-67
2024/02/20 12:39:46;;;;;;;;;;;;;;;;;;5052083;28;19928;-67
2024/02/20 12:42:12;;;;;;;;;;;;;;;;;;5047920;28;19920;-67
2024/02/20 12:44:38;;;;;;;;;;;;;;;;;;5051193;28;20015;-68
2024/02/20 12:47:04;;;;;;;;;;;;;;;;;;5049012;28;19920;-65
2024/02/20 12:49:30;;;;;;;;;;;;;;;;;;5061729;28;19921;-65
2024/02/20 12:51:56;;;;;;;;;;;;;;;;;;5049188;28;19921;-66
2024/02/20 12:54:22;;;;;;;;;;;;;;;;;;5052783;28;20365;-66
2024/02/20 12:56:48;;;;;;;;;;;;;;;;;;5052059;28;19927;-66
2024/02/20 12:59:17;;;;;;;;;;;;;;;;;;5050958;28;19921;-67
2024/02/20 13:01:42;;;;;;;;;;;;;;;;;;5038964;28;19920;-67
2024/02/20 13:04:09;;;;;;;;;;;;;;;;;;5049794;28;19978;-67
2024/02/20 13:06:35;;;;;;;;;;;;;;;;;;5052605;28;19928;-67
2024/02/20 13:09:01;;;;;;;;;;;;;;;;;;5049053;28;19928;-66
2024/02/20 13:11:27;;;;;;;;;;;;;;;;;;5048031;28;20336;-66
2024/02/20 13:13:54;;;;;;;;;;;;;;;;;;5047988;28;19928;-67
2024/02/20 13:16:20;;;;;;;;;;;;;;;;;;5059725;28;20390;-66
2024/02/20 13:18:47;;;;;;;;;;;;;;;;;;5027647;28;19963;-66
2024/02/20 13:21:14;;;;;;;;;;;;;;;;;;5045234;28;20003;-66
2024/02/20 13:23:39;;;;;;;;;;;;;;;;;;5050862;28;19924;-66
2024/02/20 13:26:05;;;;;;;;;;;;;;;;;;5051380;28;19921;-67
2024/02/20 13:28:31;;;;;;;;;;;;;;;;;;5052541;28;19935;-67
2024/02/20 13:30:57;;;;;;;;;;;;;;;;;;5048073;28;19925;-67
2024/02/20 13:33:23;;;;;;;;;;;;;;;;;;5037960;28;20252;-66
2024/02/20 13:35:49;;;;;;;;;;;;;;;;;;5051986;28;19921;-67
2024/02/20 13:38:15;;;;;;;;;;;;;;;;;;5052594;28;19920;-66
2024/02/20 13:40:41;;;;;;;;;;;;;;;;;;5052521;28;19982;-66
2024/02/20 13:43:08;;;;;;;;;;;;;;;;;;5051537;28;20007;-67
2024/02/20 13:45:34;;;;;;;;;;;;;;;;;;5050108;28;19932;-67
2024/02/20 13:48:00;;;;;;;;;;;;;;;;;;5052241;28;19932;-66
2024/02/20 13:50:26;;;;;;;;;;;;;;;;;;5036649;28;19921;-67
2024/02/20 13:52:52;;;;;;;;;;;;;;;;;;5064748;28;19924;-68
2024/02/20 13:55:18;;;;;;;;;;;;;;;;;;5052407;28;19924;-67
2024/02/20 13:57:45;;;;;;;;;;;;;;;;;;5047958;28;19921;-67
2024/02/20 14:00:11;;;;;;;;;;;;;;;;;;5035406;28;19929;-67
2024/02/20 14:02:37;;;;;;;;;;;;;;;;;;5049282;28;20369;-66
2024/02/20 14:05:03;;;;;;;;;;;;;;;;;;5049271;28;20374;-67
2024/02/20 14:07:30;;;;;;;;;;;;;;;;;;5050942;28;19931;-67
2024/02/20 14:09:55;;;;;;;;;;;;;;;;;;5033229;28;19932;-67
2024/02/20 14:12:21;;;;;;;;;;;;;;;;;;5047634;28;20002;-67
2024/02/20 14:14:47;;;;;;;;;;;;;;;;;;5045032;28;20612;-66
2024/02/20 14:17:16;;;;;;;;;;;;;;;;;;5045624;28;19952;-66
2024/02/20 14:19:42;;;;;;;;;;;;;;;;;;5044763;28;20021;-67
2024/02/20 14:22:10;;;;;;;;;;;;;;;;;;5045049;28;20013;-66
2024/02/20 14:24:37;;;;;;;;;;;;;;;;;;5039747;28;19931;-66
2024/02/20 14:27:03;;;;;;;;;;;;;;;;;;5049896;28;19921;-66
2024/02/20 14:29:29;;;;;;;;;;;;;;;;;;5042110;28;19925;-67
2024/02/20 14:31:56;;;;;;;;;;;;;;;;;;5055374;28;19920;-67
2024/02/20 14:34:22;;;;;;;;;;;;;;;;;;5051046;28;20007;-67
2024/02/20 14:36:48;;;;;;;;;;;;;;;;;;5049988;28;20008;-67
2024/02/20 14:39:14;;;;;;;;;;;;;;;;;;5046385;28;19964;-67
2024/02/20 14:41:40;;;;;;;;;;;;;;;;;;5040717;28;19971;-67
2024/02/20 14:44:06;;;;;;;;;;;;;;;;;;5050788;28;20354;-67
2024/02/20 14:46:33;;;;;;;;;;;;;;;;;;5051816;28;19969;-67
2024/02/20 14:48:59;;;;;;;;;;;;;;;;;;5050480;28;19924;-67
2024/02/20 14:51:25;;;;;;;;;;;;;;;;;;5050681;28;19970;-66
2024/02/20 14:53:53;;;;;;;;;;;;;;;;;;5049129;28;19924;-66
2024/02/20 14:56:19;;;;;;;;;;;;;;;;;;5054288;28;20400;-66
2024/02/20 14:58:45;;;;;;;;;;;;;;;;;;5048392;28;19975;-66
2024/02/20 15:01:11;;;;;;;;;;;;;;;;;;5039744;28;19936;-66
2024/02/20 15:03:37;;;;;;;;;;;;;;;;;;5042622;28;20401;-66
2024/02/20 15:06:05;;;;;;;;;;;;;;;;;;5050408;28;19971;-66
2024/02/20 15:08:31;;;;;;;;;;;;;;;;;;5049370;28;20015;-66
2024/02/20 15:10:58;;;;;;;;;;;;;;;;;;5055267;22;20011;-62
2024/02/20 15:13:24;;;;;;;;;;;;;;;;;;5052499;28;19920;-63
2024/02/20 15:15:50;;;;;;;;;;;;;;;;;;5047165;28;19928;-62
2024/02/20 15:18:16;;;;;;;;;;;;;;;;;;5031459;28;19964;-62
2024/02/20 15:20:42;;;;;;;;;;;;;;;;;;5042986;28;19928;-63
2024/02/20 15:23:08;;;;;;;;;;;;;;;;;;5052547;28;19921;-63
2024/02/20 15:25:34;;;;;;;;;;;;;;;;;;5027967;28;19931;-63
2024/02/20 15:28:00;;;;;;;;;;;;;;;;;;5048325;28;20329;-63
2024/02/20 15:30:26;;;;;;;;;;;;;;;;;;5045844;28;19925;-63
2024/02/20 15:32:52;;;;;;;;;;;;;;;;;;5050403;28;19964;-63
2024/02/20 15:35:22;;;;;;;;;;;;;;;;;;5040815;28;20426;-63
2024/02/20 15:37:48;;;;;;;;;;;;;;;;;;5052226;28;20341;-63
2024/02/20 15:40:14;;;;;;;;;;;;;;;;;;5050044;28;19945;-62
2024/02/20 15:42:43;;;;;;;;;;;;;;;;;;5035158;28;19928;-62
2024/02/20 15:45:09;;;;;;;;;;;;;;;;;;5053904;28;19921;-62
2024/02/20 15:47:35;;;;;;;;;;;;;;;;;;5035077;28;19979;-63
2024/02/20 15:50:02;;;;;;;;;;;;;;;;;;5043135;28;20420;-63
2024/02/20 15:52:30;;;;;;;;;;;;;;;;;;5055023;28;19920;-63
2024/02/20 15:54:56;;;;;;;;;;;;;;;;;;5053214;28;19925;-63
2024/02/20 15:57:22;;;;;;;;;;;;;;;;;;5051498;28;19929;-63
2024/02/20 15:59:48;;;;;;;;;;;;;;;;;;5053999;28;19921;-63
2024/02/20 16:02:14;;;;;;;;;;;;;;;;;;5053390;28;20000;-63
2024/02/20 16:04:40;;;;;;;;;;;;;;;;;;5035691;28;20019;-63
2024/02/20 16:07:06;;;;;;;;;;;;;;;;;;5045676;28;19974;-63
2024/02/20 16:09:32;;;;;;;;;;;;;;;;;;5044775;28;20345;-63
2024/02/20 16:11:58;;;;;;;;;;;;;;;;;;5027047;28;20015;-63
2024/02/20 16:14:25;;;;;;;;;;;;;;;;;;5052023;28;20015;-63
2024/02/20 16:16:51;;;;;;;;;;;;;;;;;;5032517;28;19925;-63
2024/02/20 16:19:17;;;;;;;;;;;;;;;;;;5048253;28;19925;-63
2024/02/20 16:21:42;;;;;;;;;;;;;;;;;;5051891;28;19935;-63
2024/02/20 16:24:08;;;;;;;;;;;;;;;;;;5017200;28;19925;-63
2024/02/20 16:26:34;;;;;;;;;;;;;;;;;;5050970;28;19925;-63
2024/02/20 16:29:00;;;;;;;;;;;;;;;;;;5051287;28;19929;-63
2024/02/20 16:31:26;;;;;;;;;;;;;;;;;;5045798;28;19994;-63
2024/02/20 16:33:52;;;;;;;;;;;;;;;;;;5049218;28;19939;-63
2024/02/20 16:36:18;;;;;;;;;;;;;;;;;;5031166;28;19928;-63
2024/02/20 16:38:44;;;;;;;;;;;;;;;;;;5051118;28;20420;-63